createdAt,value
2022-09-01T00:02:24.531Z,59.76
2022-09-01T00:05:30.336Z,59.83
2022-09-01T00:08:37.408Z,59.93
2022-09-01T00:11:43.603Z,59.96
2022-09-01T00:14:53.449Z,60.04
2022-09-01T00:17:59.916Z,60.03
2022-09-01T00:21:06.025Z,60.14
2022-09-01T00:24:12.270Z,60.25
2022-09-01T00:27:17.485Z,60.39
2022-09-01T00:30:25.000Z,60.51
2022-09-01T00:33:32.490Z,60.55
2022-09-01T00:36:38.118Z,60.63
2022-09-01T00:39:43.880Z,60.74
2022-09-01T00:42:51.483Z,60.77
2022-09-01T00:45:58.610Z,60.80
2022-09-01T00:49:16.197Z,60.88
2022-09-01T00:52:33.422Z,60.94
2022-09-01T00:55:36.611Z,61.01
2022-09-01T00:58:45.624Z,61.14
2022-09-01T01:01:52.145Z,61.18
2022-09-01T01:04:59.347Z,61.21
2022-09-01T01:08:07.199Z,61.27
2022-09-01T01:11:18.562Z,61.31
2022-09-01T01:14:26.901Z,61.42
2022-09-01T01:17:35.619Z,61.56
2022-09-01T01:21:00.114Z,61.63
2022-09-01T01:24:14.500Z,61.73
2022-09-01T01:27:19.922Z,61.83
2022-09-01T01:30:20.952Z,61.88
2022-09-01T01:33:27.199Z,61.96
2022-09-01T01:36:45.377Z,62.03
2022-09-01T01:39:51.760Z,62.07
2022-09-01T01:43:04.051Z,62.18
2022-09-01T01:46:12.871Z,62.21
2022-09-01T01:49:20.273Z,62.23
2022-09-01T01:52:28.781Z,62.36
2022-09-01T01:55:37.534Z,62.46
2022-09-01T01:58:42.860Z,62.53
2022-09-01T02:01:51.008Z,62.66
2022-09-01T02:04:56.719Z,62.67
2022-09-01T02:08:06.260Z,62.61
2022-09-01T02:11:13.295Z,62.65
2022-09-01T02:14:23.207Z,62.75
2022-09-01T02:17:30.205Z,62.79
2022-09-01T02:20:37.052Z,62.86
2022-09-01T02:23:46.198Z,62.94
2022-09-01T02:26:56.550Z,63.03
2022-09-01T02:30:02.514Z,63.06
2022-09-01T02:33:08.880Z,63.14
2022-09-01T02:36:20.884Z,63.28
2022-09-01T02:39:29.608Z,63.35
2022-09-01T02:42:37.202Z,63.43
2022-09-01T02:45:44.343Z,63.57
2022-09-01T02:48:52.606Z,63.66
2022-09-01T02:51:56.899Z,63.69
2022-09-01T02:54:51.716Z,63.75
2022-09-01T02:57:57.469Z,63.72
2022-09-01T03:01:08.272Z,63.61
2022-09-01T03:04:19.359Z,63.65
2022-09-01T03:07:28.871Z,63.77
2022-09-01T03:10:37.578Z,63.90
2022-09-01T03:13:43.956Z,64.00
2022-09-01T03:16:52.421Z,63.99
2022-09-01T03:19:59.253Z,63.98
2022-09-01T03:23:06.235Z,64.00
2022-09-01T03:26:12.093Z,64.11
2022-09-01T03:29:18.066Z,64.25
2022-09-01T03:32:25.849Z,64.29
2022-09-01T03:35:32.110Z,64.24
2022-09-01T03:38:40.243Z,64.37
2022-09-01T03:41:45.179Z,64.45
2022-09-01T03:44:51.435Z,64.49
2022-09-01T03:48:00.463Z,64.56
2022-09-01T03:51:11.126Z,64.62
2022-09-01T03:54:17.921Z,64.69
2022-09-01T03:57:23.878Z,64.72
2022-09-01T04:00:31.781Z,64.83
2022-09-01T04:03:42.931Z,64.92
2022-09-01T04:06:54.139Z,64.95
2022-09-01T04:10:00.712Z,65.00
2022-09-01T04:13:07.247Z,65.04
2022-09-01T04:16:17.859Z,65.11
2022-09-01T04:19:30.874Z,65.13
2022-09-01T04:22:37.657Z,65.16
2022-09-01T04:25:45.462Z,65.23
2022-09-01T04:28:55.071Z,65.26
2022-09-01T04:32:00.709Z,65.33
2022-09-01T04:35:09.649Z,65.43
2022-09-01T04:38:16.925Z,65.44
2022-09-01T04:41:25.032Z,65.45
2022-09-01T04:44:36.792Z,65.47
2022-09-01T04:47:44.781Z,65.50
2022-09-01T04:50:55.768Z,65.60
2022-09-01T04:54:04.887Z,65.72
2022-09-01T04:57:14.130Z,65.79
2022-09-01T05:00:23.868Z,65.90
2022-09-01T05:03:32.363Z,65.92
2022-09-01T05:06:41.435Z,65.97
2022-09-01T05:09:50.835Z,66.05
2022-09-01T05:13:07.989Z,66.08
2022-09-01T05:16:25.274Z,66.09
2022-09-01T05:19:32.302Z,66.11
2022-09-01T05:22:41.381Z,66.12
2022-09-01T05:25:50.167Z,66.12
2022-09-01T05:28:58.087Z,66.18
2022-09-01T05:32:04.443Z,66.19
2022-09-01T05:35:12.372Z,66.19
2022-09-01T05:38:20.467Z,66.19
2022-09-01T05:41:27.350Z,66.17
2022-09-01T05:44:34.735Z,66.22
2022-09-01T05:47:44.337Z,66.22
2022-09-01T05:50:51.003Z,66.20
2022-09-01T05:53:58.710Z,66.17
2022-09-01T05:57:30.283Z,66.12
2022-09-01T06:00:14.660Z,66.10
2022-09-01T06:03:22.055Z,66.06
2022-09-01T06:06:40.029Z,66.01
2022-09-01T06:09:38.455Z,65.99
2022-09-01T06:12:48.693Z,65.96
2022-09-01T06:15:55.002Z,65.94
2022-09-01T06:19:04.442Z,65.90
2022-09-01T06:22:11.841Z,65.89
2022-09-01T06:25:18.801Z,65.92
2022-09-01T06:28:30.381Z,65.84
2022-09-01T06:31:44.406Z,65.70
2022-09-01T06:34:58.428Z,65.63
2022-09-01T06:38:12.051Z,65.56
2022-09-01T06:41:27.406Z,65.52
2022-09-01T06:44:41.246Z,65.36
2022-09-01T06:47:46.898Z,65.28
2022-09-01T06:54:10.836Z,65.02
2022-09-01T07:00:30.895Z,64.84
2022-09-01T07:03:39.331Z,64.81
2022-09-01T07:08:04.578Z,64.75
2022-09-01T07:10:17.723Z,64.68
2022-09-01T07:13:16.118Z,64.61
2022-09-01T07:16:51.699Z,64.56
2022-09-01T07:19:57.737Z,64.50
2022-09-01T07:23:05.536Z,64.45
2022-09-01T07:26:24.699Z,64.35
2022-09-01T07:29:26.614Z,64.23
2022-09-01T07:32:43.579Z,64.17
2022-09-01T07:45:32.251Z,63.83
2022-09-01T07:51:47.066Z,63.64
2022-09-01T07:54:56.859Z,63.53
2022-09-01T07:58:03.302Z,63.30
2022-09-01T08:01:17.570Z,63.17
2022-09-01T08:04:27.979Z,63.06
2022-09-01T08:07:58.161Z,62.94
2022-09-01T08:11:04.245Z,62.82
2022-09-01T08:14:06.742Z,62.58
2022-09-01T08:17:18.042Z,62.42
2022-09-01T08:20:22.744Z,62.14
2022-09-01T08:23:34.631Z,61.97
2022-09-01T08:26:44.269Z,61.78
2022-09-01T08:29:55.676Z,61.61
2022-09-01T08:33:12.704Z,61.44
2022-09-01T08:36:22.902Z,61.21
2022-09-01T08:39:24.827Z,61.10
2022-09-01T08:42:49.318Z,60.95
2022-09-01T08:46:11.174Z,60.82
2022-09-01T08:49:26.627Z,60.61
2022-09-01T08:52:50.097Z,60.15
2022-09-01T08:56:02.898Z,59.92
2022-09-01T08:59:08.774Z,59.77
2022-09-01T09:02:46.205Z,59.69
2022-09-01T09:06:25.213Z,59.54
2022-09-01T09:09:33.471Z,59.23
2022-09-01T09:13:09.800Z,58.91
2022-09-01T09:16:34.892Z,58.73
2022-09-01T09:19:49.531Z,58.41
2022-09-01T09:22:59.832Z,58.37
2022-09-01T09:26:07.986Z,58.21
2022-09-01T09:29:12.519Z,57.95
2022-09-01T09:32:24.027Z,57.76
2022-09-01T09:35:39.888Z,57.64
2022-09-01T09:38:45.796Z,57.51
2022-09-01T09:41:53.870Z,57.37
2022-09-01T09:45:02.676Z,57.18
2022-09-01T09:48:10.886Z,56.97
2022-09-01T09:51:36.842Z,56.78
2022-09-01T09:54:45.004Z,56.51
2022-09-01T09:57:54.534Z,56.39
2022-09-01T10:01:17.506Z,56.10
2022-09-01T10:04:23.394Z,55.78
2022-09-01T10:07:52.087Z,55.54
2022-09-01T10:11:05.388Z,55.38
2022-09-01T10:14:13.608Z,55.25
2022-09-01T10:17:35.952Z,55.11
2022-09-01T10:20:41.842Z,55.00
2022-09-01T10:23:51.471Z,55.03
2022-09-01T10:26:58.769Z,54.77
2022-09-01T10:30:23.201Z,54.40
2022-09-01T10:33:31.693Z,54.22
2022-09-01T10:36:41.488Z,53.91
2022-09-01T10:39:51.661Z,53.79
2022-09-01T10:42:59.311Z,53.39
2022-09-01T10:46:09.076Z,53.15
2022-09-01T10:49:46.873Z,53.06
2022-09-01T10:53:04.963Z,52.98
2022-09-01T10:56:43.686Z,52.72
2022-09-01T10:59:56.850Z,52.56
2022-09-01T11:02:54.832Z,52.34
2022-09-01T11:06:14.449Z,52.25
2022-09-01T11:09:43.200Z,51.93
2022-09-01T11:12:59.661Z,51.62
2022-09-01T11:20:18.551Z,51.33
2022-09-01T11:28:07.717Z,50.87
2022-09-01T11:31:57.595Z,50.79
2022-09-01T11:35:04.457Z,50.66
2022-09-01T11:38:17.145Z,50.58
2022-09-01T11:41:23.500Z,50.39
2022-09-01T11:45:06.726Z,50.10
2022-09-01T11:48:24.324Z,49.88
2022-09-01T11:51:31.085Z,49.79
2022-09-01T11:54:38.379Z,49.55
2022-09-01T11:57:52.193Z,49.28
2022-09-01T12:00:57.815Z,49.05
2022-09-01T12:04:05.202Z,49.02
2022-09-01T12:07:20.562Z,48.86
2022-09-01T12:10:42.588Z,48.75
2022-09-01T12:13:47.940Z,48.54
2022-09-01T12:16:55.199Z,48.38
2022-09-01T12:20:01.901Z,48.15
2022-09-01T12:23:09.609Z,48.22
2022-09-01T12:26:26.416Z,48.06
2022-09-01T12:29:35.697Z,47.93
2022-09-01T12:32:42.715Z,47.78
2022-09-01T12:35:50.741Z,47.67
2022-09-01T12:38:58.531Z,47.46
2022-09-01T12:42:20.862Z,47.34
2022-09-01T12:45:27.618Z,47.23
2022-09-01T12:48:53.440Z,46.94
2022-09-01T12:52:00.777Z,46.85
2022-09-01T12:58:23.923Z,46.73
2022-09-01T13:01:42.466Z,46.61
2022-09-01T13:04:48.453Z,46.57
2022-09-01T13:07:55.120Z,46.43
2022-09-01T13:11:08.238Z,46.25
2022-09-01T13:14:15.257Z,46.05
2022-09-01T13:17:20.702Z,45.87
2022-09-01T13:20:26.875Z,45.70
2022-09-01T13:23:33.757Z,45.51
2022-09-01T13:26:39.269Z,45.37
2022-09-01T13:29:53.158Z,45.23
2022-09-01T13:33:20.334Z,45.12
2022-09-01T13:39:42.358Z,44.91
2022-09-01T13:42:49.597Z,44.81
2022-09-01T13:45:59.078Z,44.76
2022-09-01T13:49:42.038Z,44.70
2022-09-01T13:52:14.504Z,44.61
2022-09-01T13:55:22.253Z,44.55
2022-09-01T13:58:28.030Z,44.49
2022-09-01T14:01:37.088Z,44.39
2022-09-01T14:04:44.887Z,44.33
2022-09-01T14:07:55.534Z,44.21
2022-09-01T14:11:07.337Z,44.09
2022-09-01T14:14:14.734Z,43.97
2022-09-01T14:17:21.127Z,43.89
2022-09-01T14:20:29.878Z,43.76
2022-09-01T14:23:36.151Z,43.60
2022-09-01T14:26:46.141Z,43.48
2022-09-01T14:29:54.896Z,43.39
2022-09-01T14:33:01.491Z,43.25
2022-09-01T14:36:10.041Z,43.13
2022-09-01T14:39:16.157Z,43.06
2022-09-01T14:42:23.426Z,42.95
2022-09-01T14:45:30.217Z,42.96
2022-09-01T14:48:37.121Z,42.95
2022-09-01T14:54:52.968Z,42.88
2022-09-01T14:57:59.020Z,42.79
2022-09-01T15:01:23.525Z,42.75
2022-09-01T15:04:14.080Z,42.72
2022-09-01T15:07:21.678Z,42.62
2022-09-01T15:10:30.421Z,42.58
2022-09-01T15:13:36.642Z,42.48
2022-09-01T15:16:44.434Z,42.45
2022-09-01T15:19:50.510Z,42.46
2022-09-01T15:22:57.179Z,42.44
2022-09-01T15:26:07.115Z,42.38
2022-09-01T15:29:16.371Z,42.24
2022-09-01T15:32:27.758Z,42.13
2022-09-01T15:35:30.907Z,42.03
2022-09-01T15:38:35.788Z,41.95
2022-09-01T15:41:45.076Z,41.87
2022-09-01T15:44:50.283Z,41.82
2022-09-01T15:47:57.993Z,41.76
2022-09-01T15:51:04.534Z,41.68
2022-09-01T15:54:15.786Z,41.64
2022-09-01T15:57:23.329Z,41.60
2022-09-01T16:00:30.954Z,41.54
2022-09-01T16:03:38.700Z,41.50
2022-09-01T16:06:46.726Z,41.47
2022-09-01T16:09:52.779Z,41.43
2022-09-01T16:12:59.917Z,41.42
2022-09-01T16:16:30.534Z,41.47
2022-09-01T16:20:10.005Z,41.49
2022-09-01T16:23:38.557Z,41.53
2022-09-01T16:26:45.014Z,41.53
2022-09-01T16:29:59.451Z,41.55
2022-09-01T16:33:05.942Z,41.55
2022-09-01T16:36:50.221Z,41.57
2022-09-01T16:40:09.799Z,41.60
2022-09-01T16:43:57.207Z,41.66
2022-09-01T16:47:21.055Z,41.71
2022-09-01T16:50:55.509Z,41.77
2022-09-01T16:54:12.858Z,41.80
2022-09-01T16:57:35.950Z,41.86
2022-09-01T17:00:46.709Z,41.91
2022-09-01T17:04:18.808Z,41.97
2022-09-01T17:07:43.247Z,42.04
2022-09-01T17:11:14.789Z,42.11
2022-09-01T17:14:22.709Z,42.18
2022-09-01T17:17:33.876Z,42.26
2022-09-01T17:20:43.143Z,42.34
2022-09-01T17:23:55.578Z,42.42
2022-09-01T17:27:01.495Z,42.47
2022-09-01T17:30:08.318Z,42.54
2022-09-01T17:33:25.702Z,42.59
2022-09-01T17:36:38.147Z,42.65
2022-09-01T17:40:05.681Z,42.74
2022-09-01T17:43:32.551Z,42.82
2022-09-01T17:47:06.039Z,42.93
2022-09-01T17:54:14.571Z,43.13
2022-09-01T17:57:37.597Z,43.24
2022-09-01T18:01:00.003Z,43.35
2022-09-01T18:04:45.134Z,43.43
2022-09-01T18:08:31.898Z,43.55
2022-09-01T18:12:18.618Z,43.62
2022-09-01T18:15:35.968Z,43.72
2022-09-01T18:18:52.473Z,43.79
2022-09-01T18:22:07.122Z,43.86
2022-09-01T18:25:20.762Z,43.92
2022-09-01T18:28:27.826Z,43.99
2022-09-01T18:31:59.889Z,44.08
2022-09-01T18:35:40.295Z,44.18
2022-09-01T18:39:12.560Z,44.30
2022-09-01T18:42:37.371Z,44.39
2022-09-01T18:46:04.616Z,44.48
2022-09-01T18:49:36.210Z,44.52
2022-09-01T18:53:18.404Z,44.63
2022-09-01T18:57:03.875Z,44.68
2022-09-01T19:00:25.643Z,44.81
2022-09-01T19:03:58.447Z,44.90
2022-09-01T19:07:34.081Z,44.95
2022-09-01T19:10:58.226Z,45.03
2022-09-01T19:14:36.527Z,45.19
2022-09-01T19:17:57.030Z,45.40
2022-09-01T19:21:19.919Z,45.57
2022-09-01T19:24:33.111Z,45.69
2022-09-01T19:27:42.437Z,45.76
2022-09-01T19:30:50.193Z,45.81
2022-09-01T19:34:04.429Z,45.91
2022-09-01T19:37:15.407Z,46.04
2022-09-01T19:40:25.132Z,46.14
2022-09-01T19:43:31.934Z,46.24
2022-09-01T19:46:48.425Z,46.33
2022-09-01T19:49:59.100Z,46.43
2022-09-01T19:53:29.821Z,46.47
2022-09-01T19:56:49.832Z,46.57
2022-09-01T20:00:05.009Z,46.65
2022-09-01T20:03:24.077Z,46.71
2022-09-01T20:06:50.113Z,46.77
2022-09-01T20:10:18.073Z,46.88
2022-09-01T20:13:32.125Z,46.94
2022-09-01T20:17:01.649Z,47.02
2022-09-01T20:20:26.841Z,47.14
2022-09-01T20:23:43.055Z,47.20
2022-09-01T20:26:52.176Z,47.31
2022-09-01T20:30:25.581Z,47.41
2022-09-01T20:33:41.674Z,47.51
2022-09-01T20:37:01.159Z,47.64
2022-09-01T20:40:19.035Z,47.73
2022-09-01T20:43:32.431Z,47.83
2022-09-01T20:46:39.179Z,47.92
2022-09-01T20:49:49.821Z,48.01
2022-09-01T20:53:22.199Z,48.06
2022-09-01T20:56:42.094Z,48.13
2022-09-01T21:00:03.017Z,48.21
2022-09-01T21:03:34.591Z,48.33
2022-09-01T21:07:06.776Z,48.42
2022-09-01T21:10:33.750Z,48.52
2022-09-01T21:14:02.204Z,48.60
2022-09-01T21:17:18.109Z,48.71
2022-09-01T21:21:07.886Z,48.80
2022-09-01T21:24:15.280Z,48.89
2022-09-01T21:27:31.678Z,48.99
2022-09-01T21:30:39.406Z,49.04
2022-09-01T21:33:46.574Z,49.08
2022-09-01T21:36:55.426Z,49.16
2022-09-01T21:40:03.702Z,49.22
2022-09-01T21:43:15.933Z,49.32
2022-09-01T21:46:26.132Z,49.39
2022-09-01T21:49:35.526Z,49.40
2022-09-01T21:52:43.626Z,49.47
2022-09-01T21:55:50.295Z,49.56
2022-09-01T21:58:58.190Z,49.58
2022-09-01T22:02:05.301Z,49.66
2022-09-01T22:05:12.277Z,49.72
2022-09-01T22:08:20.895Z,49.84
2022-09-01T22:11:26.037Z,49.86
2022-09-01T22:14:33.220Z,49.91
2022-09-01T22:17:38.569Z,49.97
2022-09-01T22:20:45.043Z,50.08
2022-09-01T22:23:51.509Z,50.12
2022-09-01T22:26:51.216Z,50.19
2022-09-01T22:29:59.536Z,50.36
2022-09-01T22:33:06.308Z,50.39
2022-09-01T22:36:12.073Z,50.35
2022-09-01T22:39:18.229Z,50.44
2022-09-01T22:42:25.030Z,50.55
2022-09-01T22:45:33.148Z,50.63
2022-09-01T22:48:40.507Z,50.72
2022-09-01T22:51:46.655Z,50.85
2022-09-01T22:54:52.702Z,50.88
2022-09-01T22:58:00.117Z,50.97
2022-09-01T23:01:07.129Z,51.10
2022-09-01T23:04:14.800Z,51.23
2022-09-01T23:07:21.072Z,51.32
2022-09-01T23:10:27.132Z,51.50
2022-09-01T23:13:35.132Z,51.56
2022-09-01T23:16:42.617Z,51.61
2022-09-01T23:19:48.178Z,51.62
2022-09-01T23:22:57.220Z,51.69
2022-09-01T23:26:03.367Z,51.85
2022-09-01T23:29:09.232Z,52.02
2022-09-01T23:32:14.532Z,52.16
2022-09-01T23:35:20.642Z,52.30
2022-09-01T23:38:27.711Z,52.34
2022-09-01T23:41:39.240Z,52.51
2022-09-01T23:44:44.971Z,52.65
2022-09-01T23:47:52.667Z,52.69
2022-09-01T23:51:12.969Z,52.81
2022-09-01T23:54:18.818Z,52.89
2022-09-01T23:57:25.993Z,53.04
